sensor_id;sensor_type;location;lat;lon;timestamp;P1;durP1;ratioP1;P2;durP2;ratioP2
60436;SDS011;46289;51.992;4.498;2023-05-07T00:00:08;62.55;;;26.25;;
60436;SDS011;46289;51.992;4.498;2023-05-07T00:02:17;57.50;;;25.63;;
60436;SDS011;46289;51.992;4.498;2023-05-07T00:04:23;60.38;;;25.48;;
60436;SDS011;46289;51.992;4.498;2023-05-07T00:06:31;58.80;;;25.80;;
60436;SDS011;46289;51.992;4.498;2023-05-07T00:08:37;52.53;;;23.95;;
60436;SDS011;46289;51.992;4.498;2023-05-07T00:10:44;51.95;;;25.38;;
60436;SDS011;46289;51.992;4.498;2023-05-07T00:12:50;66.47;;;26.20;;
60436;SDS011;46289;51.992;4.498;2023-05-07T00:14:55;65.25;;;26.77;;
60436;SDS011;46289;51.992;4.498;2023-05-07T00:17:01;58.85;;;27.60;;
60436;SDS011;46289;51.992;4.498;2023-05-07T00:19:06;62.75;;;28.48;;
60436;SDS011;46289;51.992;4.498;2023-05-07T00:21:11;58.95;;;25.90;;
60436;SDS011;46289;51.992;4.498;2023-05-07T00:23:16;56.80;;;27.73;;
60436;SDS011;46289;51.992;4.498;2023-05-07T00:25:21;61.55;;;27.05;;
60436;SDS011;46289;51.992;4.498;2023-05-07T00:27:30;55.65;;;25.98;;
60436;SDS011;46289;51.992;4.498;2023-05-07T00:29:35;63.72;;;26.50;;
60436;SDS011;46289;51.992;4.498;2023-05-07T00:31:42;58.85;;;26.35;;
60436;SDS011;46289;51.992;4.498;2023-05-07T00:33:47;59.35;;;24.33;;
60436;SDS011;46289;51.992;4.498;2023-05-07T00:35:52;64.80;;;27.60;;
60436;SDS011;46289;51.992;4.498;2023-05-07T00:37:58;54.42;;;25.70;;
60436;SDS011;46289;51.992;4.498;2023-05-07T00:40:05;52.33;;;25.33;;
60436;SDS011;46289;51.992;4.498;2023-05-07T00:42:11;60.05;;;27.13;;
60436;SDS011;46289;51.992;4.498;2023-05-07T00:44:19;54.60;;;26.92;;
60436;SDS011;46289;51.992;4.498;2023-05-07T00:46:26;57.67;;;25.63;;
60436;SDS011;46289;51.992;4.498;2023-05-07T00:48:32;55.15;;;23.48;;
60436;SDS011;46289;51.992;4.498;2023-05-07T00:50:37;58.47;;;24.60;;
60436;SDS011;46289;51.992;4.498;2023-05-07T00:52:42;64.97;;;25.15;;
60436;SDS011;46289;51.992;4.498;2023-05-07T00:54:47;59.95;;;26.15;;
60436;SDS011;46289;51.992;4.498;2023-05-07T00:56:53;58.85;;;25.55;;
60436;SDS011;46289;51.992;4.498;2023-05-07T00:59:00;59.75;;;26.05;;
60436;SDS011;46289;51.992;4.498;2023-05-07T01:01:08;63.13;;;27.05;;
60436;SDS011;46289;51.992;4.498;2023-05-07T01:03:13;53.42;;;24.20;;
60436;SDS011;46289;51.992;4.498;2023-05-07T01:05:19;51.95;;;24.40;;
60436;SDS011;46289;51.992;4.498;2023-05-07T01:07:27;48.80;;;23.08;;
60436;SDS011;46289;51.992;4.498;2023-05-07T01:09:35;54.78;;;26.92;;
60436;SDS011;46289;51.992;4.498;2023-05-07T01:11:41;58.53;;;25.70;;
60436;SDS011;46289;51.992;4.498;2023-05-07T01:13:47;65.20;;;25.95;;
60436;SDS011;46289;51.992;4.498;2023-05-07T01:15:53;59.72;;;25.88;;
60436;SDS011;46289;51.992;4.498;2023-05-07T01:18:02;55.67;;;25.40;;
60436;SDS011;46289;51.992;4.498;2023-05-07T01:20:09;58.95;;;25.52;;
60436;SDS011;46289;51.992;4.498;2023-05-07T01:22:16;53.35;;;24.95;;
60436;SDS011;46289;51.992;4.498;2023-05-07T01:24:31;60.25;;;25.40;;
60436;SDS011;46289;51.992;4.498;2023-05-07T01:26:37;52.10;;;23.85;;
60436;SDS011;46289;51.992;4.498;2023-05-07T01:28:42;54.80;;;24.45;;
60436;SDS011;46289;51.992;4.498;2023-05-07T01:30:48;53.75;;;23.80;;
60436;SDS011;46289;51.992;4.498;2023-05-07T01:32:58;52.65;;;25.90;;
60436;SDS011;46289;51.992;4.498;2023-05-07T01:35:07;64.50;;;25.92;;
60436;SDS011;46289;51.992;4.498;2023-05-07T01:37:15;51.83;;;25.08;;
60436;SDS011;46289;51.992;4.498;2023-05-07T01:39:23;49.95;;;22.73;;
60436;SDS011;46289;51.992;4.498;2023-05-07T01:41:31;56.10;;;24.45;;
60436;SDS011;46289;51.992;4.498;2023-05-07T01:43:36;60.00;;;25.92;;
60436;SDS011;46289;51.992;4.498;2023-05-07T01:45:41;58.10;;;25.08;;
60436;SDS011;46289;51.992;4.498;2023-05-07T01:47:47;60.10;;;27.17;;
60436;SDS011;46289;51.992;4.498;2023-05-07T01:49:53;57.10;;;26.33;;
60436;SDS011;46289;51.992;4.498;2023-05-07T01:52:00;62.85;;;26.05;;
60436;SDS011;46289;51.992;4.498;2023-05-07T01:54:05;59.97;;;25.88;;
60436;SDS011;46289;51.992;4.498;2023-05-07T01:56:13;62.92;;;25.63;;
60436;SDS011;46289;51.992;4.498;2023-05-07T01:58:20;56.72;;;29.08;;
60436;SDS011;46289;51.992;4.498;2023-05-07T02:00:29;58.55;;;26.70;;
60436;SDS011;46289;51.992;4.498;2023-05-07T02:02:34;61.45;;;27.77;;
60436;SDS011;46289;51.992;4.498;2023-05-07T02:04:40;58.13;;;26.55;;
60436;SDS011;46289;51.992;4.498;2023-05-07T02:06:45;58.25;;;27.55;;
60436;SDS011;46289;51.992;4.498;2023-05-07T02:08:50;61.30;;;27.95;;
60436;SDS011;46289;51.992;4.498;2023-05-07T02:10:55;60.50;;;27.77;;
60436;SDS011;46289;51.992;4.498;2023-05-07T02:13:03;59.33;;;28.63;;
60436;SDS011;46289;51.992;4.498;2023-05-07T02:15:08;56.72;;;27.80;;
60436;SDS011;46289;51.992;4.498;2023-05-07T02:17:16;61.22;;;28.77;;
60436;SDS011;46289;51.992;4.498;2023-05-07T02:19:21;65.53;;;28.58;;
60436;SDS011;46289;51.992;4.498;2023-05-07T02:21:29;70.93;;;30.52;;
60436;SDS011;46289;51.992;4.498;2023-05-07T02:23:34;52.05;;;28.10;;
60436;SDS011;46289;51.992;4.498;2023-05-07T02:25:39;52.53;;;29.42;;
60436;SDS011;46289;51.992;4.498;2023-05-07T02:27:44;57.83;;;28.38;;
60436;SDS011;46289;51.992;4.498;2023-05-07T02:29:52;57.53;;;29.52;;
60436;SDS011;46289;51.992;4.498;2023-05-07T02:31:57;59.10;;;28.35;;
60436;SDS011;46289;51.992;4.498;2023-05-07T02:34:02;55.80;;;28.77;;
60436;SDS011;46289;51.992;4.498;2023-05-07T02:36:08;63.78;;;29.83;;
60436;SDS011;46289;51.992;4.498;2023-05-07T02:38:13;64.75;;;30.83;;
60436;SDS011;46289;51.992;4.498;2023-05-07T02:40:20;61.63;;;30.88;;
60436;SDS011;46289;51.992;4.498;2023-05-07T02:42:25;59.00;;;30.90;;
60436;SDS011;46289;51.992;4.498;2023-05-07T02:44:31;65.20;;;30.70;;
60436;SDS011;46289;51.992;4.498;2023-05-07T02:46:39;55.60;;;30.60;;
60436;SDS011;46289;51.992;4.498;2023-05-07T02:48:44;54.63;;;30.15;;
60436;SDS011;46289;51.992;4.498;2023-05-07T02:50:49;59.30;;;29.00;;
60436;SDS011;46289;51.992;4.498;2023-05-07T02:52:55;58.13;;;29.85;;
60436;SDS011;46289;51.992;4.498;2023-05-07T02:55:01;53.72;;;30.50;;
60436;SDS011;46289;51.992;4.498;2023-05-07T02:57:06;57.63;;;28.75;;
60436;SDS011;46289;51.992;4.498;2023-05-07T02:59:11;57.42;;;30.45;;
60436;SDS011;46289;51.992;4.498;2023-05-07T03:01:15;57.72;;;29.38;;
60436;SDS011;46289;51.992;4.498;2023-05-07T03:03:23;53.92;;;31.00;;
60436;SDS011;46289;51.992;4.498;2023-05-07T03:05:28;52.22;;;30.75;;
60436;SDS011;46289;51.992;4.498;2023-05-07T03:07:34;49.17;;;27.38;;
60436;SDS011;46289;51.992;4.498;2023-05-07T03:09:39;50.33;;;27.90;;
60436;SDS011;46289;51.992;4.498;2023-05-07T03:11:44;55.85;;;30.45;;
60436;SDS011;46289;51.992;4.498;2023-05-07T03:13:49;52.83;;;30.02;;
60436;SDS011;46289;51.992;4.498;2023-05-07T03:15:54;50.00;;;28.23;;
60436;SDS011;46289;51.992;4.498;2023-05-07T03:17:59;59.35;;;30.50;;
60436;SDS011;46289;51.992;4.498;2023-05-07T03:20:08;56.03;;;28.58;;
60436;SDS011;46289;51.992;4.498;2023-05-07T03:22:15;52.38;;;28.05;;
60436;SDS011;46289;51.992;4.498;2023-05-07T03:24:19;46.28;;;28.40;;
60436;SDS011;46289;51.992;4.498;2023-05-07T03:26:24;49.47;;;26.63;;
60436;SDS011;46289;51.992;4.498;2023-05-07T03:28:29;53.78;;;28.25;;
60436;SDS011;46289;51.992;4.498;2023-05-07T03:30:34;52.05;;;28.52;;
60436;SDS011;46289;51.992;4.498;2023-05-07T03:32:39;48.67;;;27.00;;
60436;SDS011;46289;51.992;4.498;2023-05-07T03:34:44;50.47;;;28.92;;
60436;SDS011;46289;51.992;4.498;2023-05-07T03:36:52;49.78;;;27.42;;
60436;SDS011;46289;51.992;4.498;2023-05-07T03:38:57;50.15;;;27.13;;
60436;SDS011;46289;51.992;4.498;2023-05-07T03:41:02;46.88;;;26.40;;
60436;SDS011;46289;51.992;4.498;2023-05-07T03:43:07;47.33;;;27.83;;
60436;SDS011;46289;51.992;4.498;2023-05-07T03:45:12;44.60;;;25.58;;
60436;SDS011;46289;51.992;4.498;2023-05-07T03:47:20;45.90;;;25.95;;
60436;SDS011;46289;51.992;4.498;2023-05-07T03:49:26;45.45;;;26.35;;
60436;SDS011;46289;51.992;4.498;2023-05-07T03:51:31;49.60;;;26.55;;
60436;SDS011;46289;51.992;4.498;2023-05-07T03:53:40;42.92;;;25.70;;
60436;SDS011;46289;51.992;4.498;2023-05-07T03:55:45;48.63;;;27.08;;
60436;SDS011;46289;51.992;4.498;2023-05-07T03:57:50;44.60;;;25.40;;
60436;SDS011;46289;51.992;4.498;2023-05-07T03:59:55;43.20;;;25.25;;
60436;SDS011;46289;51.992;4.498;2023-05-07T04:02:01;45.75;;;26.02;;
60436;SDS011;46289;51.992;4.498;2023-05-07T04:04:06;45.85;;;24.75;;
60436;SDS011;46289;51.992;4.498;2023-05-07T04:06:11;47.90;;;25.95;;
60436;SDS011;46289;51.992;4.498;2023-05-07T04:08:16;43.63;;;24.77;;
60436;SDS011;46289;51.992;4.498;2023-05-07T04:10:25;43.33;;;25.13;;
60436;SDS011;46289;51.992;4.498;2023-05-07T04:12:33;43.40;;;24.90;;
60436;SDS011;46289;51.992;4.498;2023-05-07T04:14:38;43.72;;;24.77;;
60436;SDS011;46289;51.992;4.498;2023-05-07T04:16:43;41.72;;;25.65;;
60436;SDS011;46289;51.992;4.498;2023-05-07T04:18:48;41.42;;;23.75;;
60436;SDS011;46289;51.992;4.498;2023-05-07T04:20:56;44.88;;;23.90;;
60436;SDS011;46289;51.992;4.498;2023-05-07T04:23:01;39.70;;;22.45;;
60436;SDS011;46289;51.992;4.498;2023-05-07T04:25:07;36.50;;;22.67;;
60436;SDS011;46289;51.992;4.498;2023-05-07T04:27:16;41.88;;;23.35;;
60436;SDS011;46289;51.992;4.498;2023-05-07T04:29:22;40.78;;;23.65;;
60436;SDS011;46289;51.992;4.498;2023-05-07T04:31:27;42.45;;;22.55;;
60436;SDS011;46289;51.992;4.498;2023-05-07T04:33:32;36.08;;;22.40;;
60436;SDS011;46289;51.992;4.498;2023-05-07T04:35:38;40.25;;;22.73;;
60436;SDS011;46289;51.992;4.498;2023-05-07T04:37:43;41.28;;;23.88;;
60436;SDS011;46289;51.992;4.498;2023-05-07T04:39:48;37.00;;;21.75;;
60436;SDS011;46289;51.992;4.498;2023-05-07T04:41:55;38.15;;;22.63;;
60436;SDS011;46289;51.992;4.498;2023-05-07T04:44:04;39.58;;;22.60;;
60436;SDS011;46289;51.992;4.498;2023-05-07T04:46:10;38.30;;;22.25;;
60436;SDS011;46289;51.992;4.498;2023-05-07T04:48:16;37.47;;;22.60;;
60436;SDS011;46289;51.992;4.498;2023-05-07T04:50:30;41.58;;;23.73;;
60436;SDS011;46289;51.992;4.498;2023-05-07T04:52:35;35.78;;;21.98;;
60436;SDS011;46289;51.992;4.498;2023-05-07T04:54:40;43.58;;;24.17;;
60436;SDS011;46289;51.992;4.498;2023-05-07T04:56:45;39.00;;;22.17;;
60436;SDS011;46289;51.992;4.498;2023-05-07T04:58:50;42.25;;;24.33;;
60436;SDS011;46289;51.992;4.498;2023-05-07T05:00:58;37.63;;;23.00;;
60436;SDS011;46289;51.992;4.498;2023-05-07T05:03:06;38.85;;;22.10;;
60436;SDS011;46289;51.992;4.498;2023-05-07T05:05:12;35.15;;;21.58;;
60436;SDS011;46289;51.992;4.498;2023-05-07T05:07:17;41.60;;;23.50;;
60436;SDS011;46289;51.992;4.498;2023-05-07T05:09:22;36.65;;;21.88;;
60436;SDS011;46289;51.992;4.498;2023-05-07T05:11:27;37.90;;;21.73;;
60436;SDS011;46289;51.992;4.498;2023-05-07T05:13:32;37.30;;;22.13;;
60436;SDS011;46289;51.992;4.498;2023-05-07T05:15:37;41.20;;;23.42;;
60436;SDS011;46289;51.992;4.498;2023-05-07T05:17:45;37.13;;;22.60;;
60436;SDS011;46289;51.992;4.498;2023-05-07T05:19:50;36.85;;;23.00;;
60436;SDS011;46289;51.992;4.498;2023-05-07T05:21:55;34.78;;;20.73;;
60436;SDS011;46289;51.992;4.498;2023-05-07T05:24:02;34.83;;;21.08;;
60436;SDS011;46289;51.992;4.498;2023-05-07T05:26:07;37.90;;;22.25;;
60436;SDS011;46289;51.992;4.498;2023-05-07T05:28:13;42.50;;;23.42;;
60436;SDS011;46289;51.992;4.498;2023-05-07T05:30:17;43.47;;;22.52;;
60436;SDS011;46289;51.992;4.498;2023-05-07T05:32:23;36.38;;;21.98;;
60436;SDS011;46289;51.992;4.498;2023-05-07T05:34:32;34.33;;;20.42;;
60436;SDS011;46289;51.992;4.498;2023-05-07T05:36:38;36.75;;;21.20;;
60436;SDS011;46289;51.992;4.498;2023-05-07T05:38:43;33.90;;;20.70;;
60436;SDS011;46289;51.992;4.498;2023-05-07T05:40:48;34.83;;;21.13;;
60436;SDS011;46289;51.992;4.498;2023-05-07T05:42:56;40.08;;;22.70;;
60436;SDS011;46289;51.992;4.498;2023-05-07T05:45:01;31.63;;;21.17;;
60436;SDS011;46289;51.992;4.498;2023-05-07T05:47:07;37.50;;;22.23;;
60436;SDS011;46289;51.992;4.498;2023-05-07T05:49:12;39.38;;;22.00;;
60436;SDS011;46289;51.992;4.498;2023-05-07T05:51:20;37.08;;;21.63;;
60436;SDS011;46289;51.992;4.498;2023-05-07T05:53:25;38.00;;;21.80;;
60436;SDS011;46289;51.992;4.498;2023-05-07T05:55:31;34.47;;;21.75;;
60436;SDS011;46289;51.992;4.498;2023-05-07T05:57:37;37.08;;;22.48;;
60436;SDS011;46289;51.992;4.498;2023-05-07T05:59:42;38.28;;;20.63;;
60436;SDS011;46289;51.992;4.498;2023-05-07T06:01:48;37.08;;;21.63;;
60436;SDS011;46289;51.992;4.498;2023-05-07T06:03:54;38.00;;;21.80;;
60436;SDS011;46289;51.992;4.498;2023-05-07T06:05:59;37.95;;;21.17;;
60436;SDS011;46289;51.992;4.498;2023-05-07T06:08:07;32.42;;;21.15;;
60436;SDS011;46289;51.992;4.498;2023-05-07T06:10:12;36.88;;;21.75;;
60436;SDS011;46289;51.992;4.498;2023-05-07T06:12:20;37.28;;;20.75;;
60436;SDS011;46289;51.992;4.498;2023-05-07T06:14:25;34.38;;;21.55;;
60436;SDS011;46289;51.992;4.498;2023-05-07T06:16:31;38.97;;;22.05;;
60436;SDS011;46289;51.992;4.498;2023-05-07T06:18:40;39.50;;;21.73;;
60436;SDS011;46289;51.992;4.498;2023-05-07T06:20:46;34.95;;;20.50;;
60436;SDS011;46289;51.992;4.498;2023-05-07T06:22:52;40.80;;;22.10;;
60436;SDS011;46289;51.992;4.498;2023-05-07T06:25:00;39.97;;;22.50;;
60436;SDS011;46289;51.992;4.498;2023-05-07T06:27:05;39.72;;;23.15;;
60436;SDS011;46289;51.992;4.498;2023-05-07T06:29:10;38.08;;;22.52;;
60436;SDS011;46289;51.992;4.498;2023-05-07T06:31:15;41.10;;;22.83;;
60436;SDS011;46289;51.992;4.498;2023-05-07T06:33:22;41.03;;;23.95;;
60436;SDS011;46289;51.992;4.498;2023-05-07T06:35:27;43.08;;;23.92;;
60436;SDS011;46289;51.992;4.498;2023-05-07T06:37:32;45.05;;;23.48;;
60436;SDS011;46289;51.992;4.498;2023-05-07T06:39:39;37.97;;;23.85;;
60436;SDS011;46289;51.992;4.498;2023-05-07T06:41:47;37.58;;;22.77;;
60436;SDS011;46289;51.992;4.498;2023-05-07T06:43:53;43.30;;;22.80;;
60436;SDS011;46289;51.992;4.498;2023-05-07T06:45:59;44.67;;;24.17;;
60436;SDS011;46289;51.992;4.498;2023-05-07T06:48:04;41.45;;;24.50;;
60436;SDS011;46289;51.992;4.498;2023-05-07T06:50:09;42.53;;;25.45;;
60436;SDS011;46289;51.992;4.498;2023-05-07T06:52:15;38.22;;;24.13;;
60436;SDS011;46289;51.992;4.498;2023-05-07T06:54:20;40.65;;;24.90;;
60436;SDS011;46289;51.992;4.498;2023-05-07T06:56:25;43.10;;;24.48;;
60436;SDS011;46289;51.992;4.498;2023-05-07T06:58:34;45.17;;;25.88;;
60436;SDS011;46289;51.992;4.498;2023-05-07T07:00:39;42.08;;;24.83;;
60436;SDS011;46289;51.992;4.498;2023-05-07T07:02:44;39.88;;;23.33;;
60436;SDS011;46289;51.992;4.498;2023-05-07T07:04:49;46.13;;;25.98;;
60436;SDS011;46289;51.992;4.498;2023-05-07T07:06:54;40.80;;;22.98;;
60436;SDS011;46289;51.992;4.498;2023-05-07T07:09:00;37.90;;;23.42;;
60436;SDS011;46289;51.992;4.498;2023-05-07T07:11:05;43.17;;;24.13;;
60436;SDS011;46289;51.992;4.498;2023-05-07T07:13:10;38.75;;;23.15;;
60436;SDS011;46289;51.992;4.498;2023-05-07T07:15:18;40.53;;;23.75;;
60436;SDS011;46289;51.992;4.498;2023-05-07T07:17:26;41.20;;;23.77;;
60436;SDS011;46289;51.992;4.498;2023-05-07T07:19:31;40.40;;;24.38;;
60436;SDS011;46289;51.992;4.498;2023-05-07T07:21:36;39.90;;;23.73;;
60436;SDS011;46289;51.992;4.498;2023-05-07T07:23:41;38.45;;;23.48;;
60436;SDS011;46289;51.992;4.498;2023-05-07T07:25:46;38.83;;;22.05;;
60436;SDS011;46289;51.992;4.498;2023-05-07T07:27:51;38.20;;;23.02;;
60436;SDS011;46289;51.992;4.498;2023-05-07T07:29:56;32.95;;;19.98;;
60436;SDS011;46289;51.992;4.498;2023-05-07T07:32:04;35.90;;;22.05;;
60436;SDS011;46289;51.992;4.498;2023-05-07T07:34:09;31.10;;;19.48;;
60436;SDS011;46289;51.992;4.498;2023-05-07T07:36:14;33.08;;;20.52;;
60436;SDS011;46289;51.992;4.498;2023-05-07T07:38:19;29.08;;;18.48;;
60436;SDS011;46289;51.992;4.498;2023-05-07T07:40:24;32.50;;;20.08;;
60436;SDS011;46289;51.992;4.498;2023-05-07T07:42:30;32.58;;;19.40;;
60436;SDS011;46289;51.992;4.498;2023-05-07T07:44:35;29.70;;;19.00;;
60436;SDS011;46289;51.992;4.498;2023-05-07T07:46:41;32.00;;;19.83;;
60436;SDS011;46289;51.992;4.498;2023-05-07T07:48:48;29.27;;;18.17;;
60436;SDS011;46289;51.992;4.498;2023-05-07T07:50:54;30.88;;;18.95;;
60436;SDS011;46289;51.992;4.498;2023-05-07T07:53:00;32.60;;;19.73;;
60436;SDS011;46289;51.992;4.498;2023-05-07T07:55:05;32.05;;;18.30;;
60436;SDS011;46289;51.992;4.498;2023-05-07T07:57:11;32.53;;;18.85;;
60436;SDS011;46289;51.992;4.498;2023-05-07T07:59:16;28.00;;;16.88;;
60436;SDS011;46289;51.992;4.498;2023-05-07T08:01:21;27.92;;;16.45;;
60436;SDS011;46289;51.992;4.498;2023-05-07T08:03:27;28.90;;;18.08;;
60436;SDS011;46289;51.992;4.498;2023-05-07T08:05:36;30.95;;;18.88;;
60436;SDS011;46289;51.992;4.498;2023-05-07T08:07:42;30.48;;;18.40;;
60436;SDS011;46289;51.992;4.498;2023-05-07T08:09:48;30.40;;;18.55;;
60436;SDS011;46289;51.992;4.498;2023-05-07T08:11:53;28.85;;;18.20;;
60436;SDS011;46289;51.992;4.498;2023-05-07T08:13:58;26.48;;;16.65;;
60436;SDS011;46289;51.992;4.498;2023-05-07T08:16:04;23.73;;;15.07;;
60436;SDS011;46289;51.992;4.498;2023-05-07T08:18:09;30.08;;;17.48;;
60436;SDS011;46289;51.992;4.498;2023-05-07T08:20:15;24.42;;;15.88;;
60436;SDS011;46289;51.992;4.498;2023-05-07T08:22:22;25.45;;;15.88;;
60436;SDS011;46289;51.992;4.498;2023-05-07T08:24:27;31.50;;;17.33;;
60436;SDS011;46289;51.992;4.498;2023-05-07T08:26:32;33.38;;;17.70;;
60436;SDS011;46289;51.992;4.498;2023-05-07T08:28:40;29.30;;;18.25;;
60436;SDS011;46289;51.992;4.498;2023-05-07T08:30:45;27.27;;;16.73;;
60436;SDS011;46289;51.992;4.498;2023-05-07T08:32:50;29.35;;;17.65;;
60436;SDS011;46289;51.992;4.498;2023-05-07T08:34:55;27.58;;;16.23;;
60436;SDS011;46289;51.992;4.498;2023-05-07T08:37:01;29.45;;;18.52;;
60436;SDS011;46289;51.992;4.498;2023-05-07T08:39:09;30.83;;;17.83;;
60436;SDS011;46289;51.992;4.498;2023-05-07T08:41:14;25.55;;;16.52;;
60436;SDS011;46289;51.992;4.498;2023-05-07T08:43:19;26.77;;;17.13;;
60436;SDS011;46289;51.992;4.498;2023-05-07T08:45:25;29.35;;;18.70;;
60436;SDS011;46289;51.992;4.498;2023-05-07T08:47:34;28.98;;;17.75;;
60436;SDS011;46289;51.992;4.498;2023-05-07T08:49:44;27.77;;;17.42;;
60436;SDS011;46289;51.992;4.498;2023-05-07T08:51:50;30.13;;;18.70;;
60436;SDS011;46289;51.992;4.498;2023-05-07T08:53:55;32.22;;;18.75;;
60436;SDS011;46289;51.992;4.498;2023-05-07T08:56:04;30.58;;;19.15;;
60436;SDS011;46289;51.992;4.498;2023-05-07T08:58:10;32.40;;;19.25;;
60436;SDS011;46289;51.992;4.498;2023-05-07T09:00:15;33.53;;;18.73;;
60436;SDS011;46289;51.992;4.498;2023-05-07T09:02:21;31.08;;;20.35;;
60436;SDS011;46289;51.992;4.498;2023-05-07T09:04:26;37.10;;;20.42;;
60436;SDS011;46289;51.992;4.498;2023-05-07T09:06:33;33.17;;;20.98;;
60436;SDS011;46289;51.992;4.498;2023-05-07T09:08:39;37.75;;;23.33;;
60436;SDS011;46289;51.992;4.498;2023-05-07T09:10:44;35.38;;;20.17;;
60436;SDS011;46289;51.992;4.498;2023-05-07T09:12:52;32.30;;;20.00;;
60436;SDS011;46289;51.992;4.498;2023-05-07T09:14:59;30.75;;;20.20;;
60436;SDS011;46289;51.992;4.498;2023-05-07T09:17:05;37.45;;;21.67;;
60436;SDS011;46289;51.992;4.498;2023-05-07T09:19:10;32.00;;;20.13;;
60436;SDS011;46289;51.992;4.498;2023-05-07T09:21:15;32.05;;;19.95;;
60436;SDS011;46289;51.992;4.498;2023-05-07T09:23:20;34.88;;;21.65;;
60436;SDS011;46289;51.992;4.498;2023-05-07T09:25:29;29.40;;;19.85;;
60436;SDS011;46289;51.992;4.498;2023-05-07T09:27:35;31.95;;;19.73;;
60436;SDS011;46289;51.992;4.498;2023-05-07T09:29:46;41.20;;;18.42;;
60436;SDS011;46289;51.992;4.498;2023-05-07T09:31:51;30.20;;;17.05;;
60436;SDS011;46289;51.992;4.498;2023-05-07T09:33:56;27.67;;;17.77;;
60436;SDS011;46289;51.992;4.498;2023-05-07T09:36:02;33.17;;;18.88;;
60436;SDS011;46289;51.992;4.498;2023-05-07T09:38:08;31.15;;;18.25;;
60436;SDS011;46289;51.992;4.498;2023-05-07T09:40:19;29.67;;;17.60;;
60436;SDS011;46289;51.992;4.498;2023-05-07T09:42:25;25.02;;;15.98;;
60436;SDS011;46289;51.992;4.498;2023-05-07T09:44:31;27.73;;;15.48;;
60436;SDS011;46289;51.992;4.498;2023-05-07T09:46:41;28.73;;;17.35;;
60436;SDS011;46289;51.992;4.498;2023-05-07T09:48:48;30.13;;;19.25;;
60436;SDS011;46289;51.992;4.498;2023-05-07T09:50:55;25.42;;;16.60;;
60436;SDS011;46289;51.992;4.498;2023-05-07T09:53:02;28.52;;;16.90;;
60436;SDS011;46289;51.992;4.498;2023-05-07T09:55:08;27.05;;;15.85;;
60436;SDS011;46289;51.992;4.498;2023-05-07T09:57:14;24.48;;;14.80;;
60436;SDS011;46289;51.992;4.498;2023-05-07T09:59:21;31.05;;;16.75;;
60436;SDS011;46289;51.992;4.498;2023-05-07T10:01:30;24.10;;;16.13;;
60436;SDS011;46289;51.992;4.498;2023-05-07T10:03:39;23.50;;;15.63;;
60436;SDS011;46289;51.992;4.498;2023-05-07T10:05:45;28.17;;;16.00;;
60436;SDS011;46289;51.992;4.498;2023-05-07T10:07:51;27.25;;;16.23;;
60436;SDS011;46289;51.992;4.498;2023-05-07T10:10:04;26.08;;;15.40;;
60436;SDS011;46289;51.992;4.498;2023-05-07T10:12:11;27.70;;;15.48;;
60436;SDS011;46289;51.992;4.498;2023-05-07T10:14:16;26.55;;;14.90;;
60436;SDS011;46289;51.992;4.498;2023-05-07T10:16:25;25.85;;;14.82;;
60436;SDS011;46289;51.992;4.498;2023-05-07T10:18:31;26.00;;;14.07;;
60436;SDS011;46289;51.992;4.498;2023-05-07T10:20:40;22.63;;;13.73;;
60436;SDS011;46289;51.992;4.498;2023-05-07T10:22:47;18.75;;;11.63;;
60436;SDS011;46289;51.992;4.498;2023-05-07T10:24:54;19.77;;;11.35;;
60436;SDS011;46289;51.992;4.498;2023-05-07T10:27:04;22.15;;;11.82;;
60436;SDS011;46289;51.992;4.498;2023-05-07T10:29:15;22.00;;;10.95;;
60436;SDS011;46289;51.992;4.498;2023-05-07T10:31:35;18.50;;;10.27;;
60436;SDS011;46289;51.992;4.498;2023-05-07T10:33:51;20.95;;;10.88;;
60436;SDS011;46289;51.992;4.498;2023-05-07T10:36:02;19.63;;;11.27;;
60436;SDS011;46289;51.992;4.498;2023-05-07T10:38:09;20.35;;;11.90;;
60436;SDS011;46289;51.992;4.498;2023-05-07T10:40:14;24.50;;;12.70;;
60436;SDS011;46289;51.992;4.498;2023-05-07T10:42:25;20.10;;;12.77;;
60436;SDS011;46289;51.992;4.498;2023-05-07T10:44:32;20.13;;;9.80;;
60436;SDS011;46289;51.992;4.498;2023-05-07T10:46:38;22.05;;;10.40;;
60436;SDS011;46289;51.992;4.498;2023-05-07T10:51:22;18.08;;;9.35;;
60436;SDS011;46289;51.992;4.498;2023-05-07T10:53:27;16.67;;;8.88;;
60436;SDS011;46289;51.992;4.498;2023-05-07T10:55:32;21.42;;;10.48;;
60436;SDS011;46289;51.992;4.498;2023-05-07T10:57:38;20.15;;;10.80;;
60436;SDS011;46289;51.992;4.498;2023-05-07T10:59:43;22.20;;;11.98;;
60436;SDS011;46289;51.992;4.498;2023-05-07T11:01:52;20.85;;;12.85;;
60436;SDS011;46289;51.992;4.498;2023-05-07T11:04:13;23.30;;;11.10;;
60436;SDS011;46289;51.992;4.498;2023-05-07T11:06:29;18.98;;;9.73;;
60436;SDS011;46289;51.992;4.498;2023-05-07T11:11:00;28.10;;;14.27;;
60436;SDS011;46289;51.992;4.498;2023-05-07T11:13:05;23.10;;;14.32;;
60436;SDS011;46289;51.992;4.498;2023-05-07T11:15:12;24.05;;;15.27;;
60436;SDS011;46289;51.992;4.498;2023-05-07T11:17:20;20.88;;;13.48;;
60436;SDS011;46289;51.992;4.498;2023-05-07T11:21:57;22.98;;;14.70;;
60436;SDS011;46289;51.992;4.498;2023-05-07T11:24:02;25.20;;;14.45;;
60436;SDS011;46289;51.992;4.498;2023-05-07T11:26:09;25.95;;;14.55;;
60436;SDS011;46289;51.992;4.498;2023-05-07T11:28:15;21.17;;;15.32;;
60436;SDS011;46289;51.992;4.498;2023-05-07T11:30:21;24.73;;;15.07;;
60436;SDS011;46289;51.992;4.498;2023-05-07T11:32:27;25.40;;;15.45;;
60436;SDS011;46289;51.992;4.498;2023-05-07T11:34:33;26.55;;;14.82;;
60436;SDS011;46289;51.992;4.498;2023-05-07T11:36:42;23.98;;;15.55;;
60436;SDS011;46289;51.992;4.498;2023-05-07T11:38:53;23.23;;;15.48;;
60436;SDS011;46289;51.992;4.498;2023-05-07T11:40:58;25.13;;;17.38;;
60436;SDS011;46289;51.992;4.498;2023-05-07T11:43:12;23.30;;;16.17;;
60436;SDS011;46289;51.992;4.498;2023-05-07T11:45:22;25.95;;;16.73;;
60436;SDS011;46289;51.992;4.498;2023-05-07T11:47:30;31.50;;;17.38;;
60436;SDS011;46289;51.992;4.498;2023-05-07T11:49:35;25.50;;;15.95;;
60436;SDS011;46289;51.992;4.498;2023-05-07T11:51:43;23.45;;;15.73;;
60436;SDS011;46289;51.992;4.498;2023-05-07T11:53:49;20.63;;;14.75;;
60436;SDS011;46289;51.992;4.498;2023-05-07T11:55:58;26.20;;;15.98;;
60436;SDS011;46289;51.992;4.498;2023-05-07T11:58:08;20.83;;;14.43;;
60436;SDS011;46289;51.992;4.498;2023-05-07T12:00:16;23.50;;;16.00;;
60436;SDS011;46289;51.992;4.498;2023-05-07T12:02:21;27.80;;;17.83;;
60436;SDS011;46289;51.992;4.498;2023-05-07T12:04:28;22.60;;;13.25;;
60436;SDS011;46289;51.992;4.498;2023-05-07T12:06:36;22.05;;;12.73;;
60436;SDS011;46289;51.992;4.498;2023-05-07T12:08:42;19.55;;;13.63;;
60436;SDS011;46289;51.992;4.498;2023-05-07T12:10:51;23.45;;;15.32;;
60436;SDS011;46289;51.992;4.498;2023-05-07T12:12:56;23.65;;;15.82;;
60436;SDS011;46289;51.992;4.498;2023-05-07T12:15:01;25.52;;;15.02;;
60436;SDS011;46289;51.992;4.498;2023-05-07T12:17:07;22.45;;;14.55;;
60436;SDS011;46289;51.992;4.498;2023-05-07T12:19:12;21.40;;;13.52;;
60436;SDS011;46289;51.992;4.498;2023-05-07T12:21:18;21.33;;;14.40;;
60436;SDS011;46289;51.992;4.498;2023-05-07T12:23:24;23.90;;;14.98;;
60436;SDS011;46289;51.992;4.498;2023-05-07T12:25:30;19.65;;;14.38;;